Time;durP1;ratioP1;P1;durP2;ratioP2;P2;SDS_P1;SDS_P2;PMS_P1;PMS_P2;Temp;Humidity;BMP_temperature;BMP_pressure;BME280_temperature;BME280_humidity;BME280_pressure;Samples;Min_cycle;Max_cycle;Signal;HPM_P1;HPM_P2
2023/01/23 00:03:35;;;;;;;10.90;6.82;;;6.20;59.80;;;4.72;63.20;103104.31;12264777;19;20006;-88
2023/01/23 00:07:37;;;;;;;9.68;6.80;;;6.50;59.90;;;4.73;63.02;103095.72;12267750;19;20102;-88
2023/01/23 00:11:39;;;;;;;10.15;6.68;;;6.20;59.80;;;4.79;62.89;103116.47;12274837;19;20014;-88
2023/01/23 00:15:41;;;;;;;11.05;6.72;;;6.20;59.90;;;4.53;63.08;103072.28;12271288;19;20014;-88
2023/01/23 00:19:43;;;;;;;11.77;7.30;;;6.20;59.90;;;4.70;63.12;103092.22;12273034;19;20012;-88
2023/01/23 00:23:48;;;;;;;11.60;7.10;;;6.20;59.90;;;4.25;62.90;103027.22;12272772;19;20054;-88
2023/01/23 00:27:50;;;;;;;12.88;7.80;;;6.10;59.90;;;4.51;63.14;103076.59;12273893;19;20048;-88
2023/01/23 00:31:51;;;;;;;11.95;6.50;;;6.20;60.00;;;4.50;63.23;103074.84;12269513;19;20495;-88
2023/01/23 00:35:54;;;;;;;14.75;7.40;;;6.20;59.90;;;4.56;63.28;103084.38;12269751;19;20002;-88
2023/01/23 00:39:56;;;;;;;12.52;6.43;;;6.20;59.90;;;4.71;63.20;103112.97;12271076;19;20018;-88
2023/01/23 00:43:58;;;;;;;12.40;7.22;;;6.20;59.90;;;4.63;63.19;103094.78;12270063;19;20111;-88
2023/01/23 00:47:59;;;;;;;11.60;7.55;;;6.20;59.90;;;4.71;63.20;103122.44;12271300;19;20007;-88
2023/01/23 00:52:01;;;;;;;12.88;6.88;;;6.20;59.90;;;4.62;63.25;103097.38;12270329;19;20017;-88
2023/01/23 00:56:04;;;;;;;11.05;6.60;;;6.20;59.80;;;4.67;63.30;103111.19;12267884;19;20003;-88
2023/01/23 01:00:07;;;;;;;14.15;7.85;;;6.20;59.90;;;4.65;63.07;103106.03;12270084;19;20034;-88
2023/01/23 01:04:09;;;;;;;11.35;6.35;;;6.20;59.90;;;4.80;63.22;103125.97;12266917;19;20030;-88
2023/01/23 01:08:11;;;;;;;11.45;6.47;;;6.20;59.80;;;4.78;63.26;103134.56;12271091;19;20066;-88
2023/01/23 01:12:13;;;;;;;11.85;7.13;;;6.20;59.80;;;4.72;63.26;103127.63;12268549;19;20015;-88
2023/01/23 01:16:15;;;;;;;12.50;7.50;;;6.20;59.90;;;4.77;63.09;103138.88;12265809;19;20026;-87
2023/01/23 01:20:17;;;;;;;10.85;6.60;;;6.20;59.80;;;4.79;63.24;103136.31;12268669;19;20495;-88
2023/01/23 01:24:19;;;;;;;12.43;7.75;;;6.20;59.80;;;4.81;63.29;103132.88;12266328;19;20033;-88
2023/01/23 01:28:20;;;;;;;10.77;7.32;;;6.20;59.80;;;4.77;63.05;103138.88;12270757;19;20033;-88
2023/01/23 01:32:22;;;;;;;17.92;9.30;;;6.30;59.90;;;4.58;63.15;103108.53;12270610;19;20018;-88
2023/01/23 01:36:25;;;;;;;16.27;9.40;;;6.20;59.90;;;4.81;63.22;103157.91;12265477;19;20463;-88
2023/01/23 01:40:32;;;;;;;14.75;7.90;;;6.20;59.90;;;4.69;63.07;103148.31;12268559;19;20760;-88
2023/01/23 01:44:55;;;;;;;16.67;9.48;;;6.30;59.90;;;4.60;62.98;103133.56;12265951;19;20381;-87
2023/01/23 01:49:29;;;;;;;12.70;7.55;;;6.20;60.00;;;4.70;63.14;103147.47;12267947;19;20014;-87
2023/01/23 01:53:33;;;;;;;14.45;8.32;;;6.20;60.00;;;4.72;63.09;103174.22;12266965;19;20027;-88
2023/01/23 01:57:39;;;;;;;16.45;8.13;;;6.20;59.90;;;4.72;63.25;103165.59;12265934;19;20010;-88
2023/01/23 02:01:43;;;;;;;14.32;7.60;;;6.20;60.50;;;4.70;63.15;103152.66;12262482;19;20021;-88
2023/01/23 02:05:48;;;;;;;14.23;8.47;;;6.20;59.90;;;4.71;63.32;103148.34;12263184;19;20018;-88
2023/01/23 02:09:54;;;;;;;15.82;8.57;;;6.30;60.00;;;4.64;63.26;103137.94;12262652;19;20026;-88
2023/01/23 02:13:56;;;;;;;12.55;7.90;;;6.20;59.90;;;4.82;63.40;103167.41;12264051;19;20042;-87
2023/01/23 02:17:58;;;;;;;17.10;9.40;;;6.30;59.90;;;4.79;63.07;103157.88;12264163;19;20002;-87
2023/01/23 02:22:09;;;;;;;14.55;7.75;;;6.50;60.00;;;4.80;63.06;103162.19;12262680;19;20002;-88
2023/01/23 02:26:28;;;;;;;18.98;9.35;;;6.30;59.90;;;4.67;63.01;103139.66;12257744;19;20085;-88
2023/01/23 02:30:29;;;;;;;15.68;8.20;;;6.30;59.90;;;4.75;63.09;103158.72;12265143;19;20014;-88
2023/01/23 02:34:32;;;;;;;13.95;8.18;;;6.30;59.90;;;4.74;63.00;103154.38;12263395;19;20048;-87
2023/01/23 02:39:03;;;;;;;14.05;8.18;;;6.30;59.90;;;4.80;63.19;103172.56;12266043;19;20023;-88
2023/01/23 02:43:09;;;;;;;13.95;7.68;;;6.20;59.90;;;4.75;63.11;103175.97;12257795;19;20010;-88
2023/01/23 02:47:16;;;;;;;14.85;8.20;;;6.30;59.90;;;4.77;63.27;103182.88;12264263;19;20377;-88
2023/01/23 02:51:20;;;;;;;13.18;8.38;;;6.20;59.80;;;4.80;63.10;103182.03;12261947;19;20778;-88
2023/01/23 02:55:25;;;;;;;16.73;9.48;;;6.30;59.80;;;4.39;63.26;103120.44;12260205;19;20029;-88
2023/01/23 03:03:50;;;;;;;15.93;9.25;;;6.30;59.90;;;4.74;63.09;103193.22;12256426;19;20011;-87
2023/01/23 03:07:52;;;;;;;15.23;9.30;;;6.30;59.90;;;4.74;63.36;103189.75;12258723;19;20484;-88
2023/01/23 03:11:54;;;;;;;13.68;8.13;;;6.20;59.80;;;4.77;63.24;103206.19;12262323;19;20803;-88
2023/01/23 03:15:56;;;;;;;18.23;9.77;;;6.30;59.80;;;4.88;63.28;103219.22;12258474;19;20021;-88
2023/01/23 03:19:58;;;;;;;12.25;7.40;;;6.30;59.90;;;4.88;63.19;103219.22;12261834;19;20038;-88
2023/01/23 03:24:05;;;;;;;12.35;7.72;;;6.30;59.80;;;4.90;63.17;103216.66;12259364;19;20021;-88
2023/01/23 03:30:12;;;;;;;13.98;8.43;;;6.30;59.80;;;4.71;63.19;103182.84;12262495;19;20009;-88
2023/01/23 03:32:29;;;;;;;16.92;9.35;;;6.30;59.80;;;4.80;63.19;103211.38;12275316;19;20010;-88
2023/01/23 03:36:36;;;;;;;13.35;8.30;;;6.30;59.80;;;4.92;63.06;103227.91;12270099;19;20052;-88
2023/01/23 03:44:58;;;;;;;16.38;8.43;;;6.40;59.80;;;4.90;63.19;103243.41;12271043;19;20018;-87
2023/01/23 03:49:04;;;;;;;13.18;8.55;;;6.40;59.80;;;4.89;63.19;103252.03;12273047;19;20006;-88
2023/01/23 03:53:08;;;;;;;16.00;8.60;;;6.50;59.80;;;4.77;63.33;103232.06;12272634;19;20014;-88
2023/01/23 03:57:12;;;;;;;13.23;7.97;;;6.30;59.70;;;4.86;63.13;103242.53;12272905;19;20025;-88
2023/01/23 04:01:37;;;;;;;13.07;7.88;;;6.50;59.80;;;4.77;63.12;103226.03;12272179;19;20034;-88
2023/01/23 04:05:39;;;;;;;13.05;8.65;;;6.50;59.70;;;4.81;63.15;103244.19;12270463;19;20040;-87
2023/01/23 04:09:41;;;;;;;14.10;7.43;;;6.30;59.60;;;4.73;63.29;103227.72;12273386;19;20021;-87
2023/01/23 04:13:45;;;;;;;14.27;7.78;;;6.40;59.70;;;4.84;63.31;103244.22;12269724;19;20021;-86
2023/01/23 04:17:47;;;;;;;12.00;7.88;;;6.60;59.70;;;4.88;63.32;103261.50;12269238;19;20377;-87
2023/01/23 04:21:49;;;;;;;14.07;8.32;;;6.30;59.70;;;4.88;63.21;103271.84;12266229;19;20028;-87
2023/01/23 04:25:51;;;;;;;14.95;8.10;;;6.40;59.70;;;4.71;63.12;103239.78;12253953;19;20475;-86
2023/01/23 04:29:53;;;;;;;13.88;8.52;;;6.30;59.70;;;4.70;63.31;103235.47;12253341;19;20015;-86
2023/01/23 04:33:56;;;;;;;13.20;8.45;;;6.40;59.70;;;4.44;63.28;103192.06;12251889;19;20468;-90
2023/01/23 04:37:57;;;;;;;13.32;8.68;;;6.30;59.70;;;4.74;63.23;103250.16;12251905;19;20018;-90
2023/01/23 04:42:00;;;;;;;17.08;11.30;;;6.30;59.70;;;4.85;63.25;103268.38;12250169;19;20030;-90
2023/01/23 04:46:22;;;;;;;16.45;10.15;;;6.30;59.80;;;4.73;63.09;103253.59;12248738;19;20003;-90
2023/01/23 04:50:31;;;;;;;16.60;9.63;;;6.40;59.80;;;4.68;63.27;103263.03;12252577;19;20007;-90
2023/01/23 04:54:33;;;;;;;16.60;8.32;;;6.20;59.80;;;4.75;63.18;103275.22;12250036;19;20010;-90
2023/01/23 04:58:36;;;;;;;16.08;10.07;;;6.20;59.80;;;4.64;63.01;103262.16;12258133;19;20019;-90
2023/01/23 05:02:39;;;;;;;13.97;8.90;;;6.30;59.90;;;4.66;63.00;103269.91;12258498;19;20028;-90
2023/01/23 05:06:41;;;;;;;15.52;9.55;;;6.40;59.90;;;4.71;63.18;103277.75;12253344;19;20018;-90
2023/01/23 05:10:43;;;;;;;16.30;9.43;;;6.40;60.00;;;4.78;63.30;103292.47;12254931;19;20388;-90
2023/01/23 05:14:48;;;;;;;13.00;8.68;;;6.20;59.90;;;4.72;63.34;103285.50;12252158;19;20019;-90
2023/01/23 05:18:51;;;;;;;13.52;8.43;;;6.20;59.90;;;4.71;63.26;103278.59;12254517;19;20018;-91
2023/01/23 05:22:53;;;;;;;15.63;9.82;;;6.10;59.90;;;4.69;63.25;103269.09;12253322;19;20011;-91
2023/01/23 05:26:59;;;;;;;17.42;10.60;;;6.10;59.90;;;4.67;63.20;103269.06;12256234;19;20010;-91
2023/01/23 05:31:05;;;;;;;19.48;11.27;;;6.20;60.00;;;4.69;63.20;103263.91;12255770;19;20448;-90
2023/01/23 05:35:16;;;;;;;14.20;9.77;;;6.30;60.00;;;4.38;63.24;103222.19;12252547;19;20014;-91
2023/01/23 05:39:18;;;;;;;14.48;9.07;;;6.10;59.90;;;4.60;63.37;103262.97;12255288;19;20468;-91
2023/01/23 05:43:20;;;;;;;14.10;9.18;;;6.10;59.90;;;4.59;63.15;103256.06;12253211;19;20619;-91
2023/01/23 05:47:51;;;;;;;14.52;9.30;;;6.10;59.90;;;4.65;63.12;103278.53;12255726;19;20368;-91
2023/01/23 05:51:54;;;;;;;14.68;9.02;;;6.10;60.00;;;4.57;63.18;103275.00;12253418;19;20022;-91
2023/01/23 05:55:57;;;;;;;15.27;8.60;;;6.10;59.90;;;4.70;63.28;103296.69;12251112;19;20010;-90
2023/01/23 05:59:59;;;;;;;14.30;9.40;;;6.10;59.90;;;4.64;63.24;103292.31;12253949;19;20014;-91
2023/01/23 06:04:35;;;;;;;16.55;9.48;;;6.20;60.00;;;4.59;63.12;103293.97;12254060;19;20018;-91
2023/01/23 06:08:49;;;;;;;15.85;9.27;;;6.10;59.90;;;4.60;63.19;103301.78;12256079;19;20018;-91
2023/01/23 06:12:51;;;;;;;15.02;9.27;;;6.10;59.90;;;4.44;63.11;103277.44;12253805;19;20043;-91
2023/01/23 06:16:53;;;;;;;16.42;8.23;;;6.10;59.90;;;4.73;63.33;103328.66;12253926;19;20030;-90
2023/01/23 06:20:58;;;;;;;13.60;7.90;;;6.10;59.80;;;4.73;63.14;103327.81;12255099;19;20019;-91
2023/01/23 06:25:00;;;;;;;13.60;8.85;;;6.10;59.80;;;4.69;63.37;103316.53;12253808;19;20015;-91
2023/01/23 06:29:02;;;;;;;11.15;7.50;;;6.10;59.80;;;4.74;63.33;103329.53;12257201;19;20022;-90
2023/01/23 06:33:05;;;;;;;12.77;7.88;;;6.20;59.80;;;4.73;63.31;103322.63;12256141;19;20014;-91
2023/01/23 06:37:12;;;;;;;14.65;9.38;;;6.20;59.80;;;4.68;63.12;103319.13;12255694;19;20055;-90
2023/01/23 06:41:17;;;;;;;13.73;8.43;;;6.10;59.80;;;4.73;63.04;103344.19;12254874;19;20099;-91
2023/01/23 06:45:29;;;;;;;16.23;8.65;;;6.20;59.80;;;4.74;63.18;103358.00;12247949;19;20403;-90
2023/01/23 06:49:31;;;;;;;13.35;8.55;;;6.20;59.80;;;4.74;63.25;103364.03;12246034;19;20403;-90
2023/01/23 06:53:33;;;;;;;13.48;8.32;;;6.20;59.70;;;4.59;63.22;103331.09;12246282;19;20011;-90
2023/01/23 06:57:35;;;;;;;13.95;9.88;;;6.20;59.70;;;4.72;63.17;103350.22;12246520;19;20011;-90
2023/01/23 07:01:38;;;;;;;18.70;9.48;;;6.20;59.80;;;4.73;63.31;103367.50;12244773;19;20015;-90
2023/01/23 07:06:05;;;;;;;19.20;9.93;;;6.20;59.70;;;4.66;63.09;103357.91;12265453;19;20009;-90
2023/01/23 07:10:11;;;;;;;17.02;9.50;;;6.10;59.70;;;4.58;63.14;103342.28;12269151;19;20029;-90
2023/01/23 07:14:13;;;;;;;16.48;10.45;;;6.10;59.80;;;4.58;63.29;103349.19;12268877;19;20019;-90
2023/01/23 07:18:27;;;;;;;14.50;9.30;;;6.00;59.70;;;4.56;63.12;103356.06;12266475;19;20019;-91
2023/01/23 07:22:29;;;;;;;15.30;9.85;;;6.10;59.70;;;4.08;63.27;103275.28;12267242;19;20322;-89
2023/01/23 07:26:30;;;;;;;16.35;9.82;;;6.00;59.80;;;4.21;63.05;103299.56;12262318;19;20098;-90
2023/01/23 07:30:33;;;;;;;14.00;8.98;;;6.00;59.80;;;4.33;63.20;103319.56;12269521;19;20018;-90
2023/01/23 07:34:34;;;;;;;16.20;9.88;;;6.00;60.40;;;4.29;63.22;103315.19;12260890;19;20046;-91
2023/01/23 07:38:38;;;;;;;15.95;8.98;;;6.00;59.90;;;4.52;63.17;103351.72;12270591;19;20014;-90
2023/01/23 07:42:41;;;;;;;15.90;9.43;;;6.20;59.90;;;4.62;63.22;103376.84;12266663;19;20011;-90
2023/01/23 07:46:44;;;;;;;15.40;10.13;;;6.00;59.90;;;4.53;63.32;103362.06;12264277;19;20018;-91
2023/01/23 07:50:46;;;;;;;17.73;10.93;;;6.00;59.90;;;4.35;63.17;103329.09;12268291;19;20026;-89
2023/01/23 07:54:48;;;;;;;17.15;10.25;;;6.00;60.10;;;4.14;63.26;103292.59;12267646;19;20017;-89
2023/01/23 07:58:50;;;;;;;17.27;10.65;;;6.00;60.10;;;4.23;63.29;103321.16;12268893;19;20018;-90
2023/01/23 08:02:51;;;;;;;17.05;10.25;;;6.00;60.10;;;4.26;63.24;103310.84;12264403;19;20010;-90
2023/01/23 08:06:53;;;;;;;17.52;10.23;;;6.00;60.20;;;4.26;63.15;103318.59;12269720;19;20014;-90
2023/01/23 08:10:54;;;;;;;15.75;9.48;;;6.00;60.10;;;4.49;63.18;103359.44;12267181;19;20735;-89
2023/01/23 08:14:56;;;;;;;17.52;9.75;;;6.00;60.00;;;4.64;63.25;103390.66;12256188;19;19998;-90
2023/01/23 08:18:58;;;;;;;16.20;10.25;;;6.00;59.90;;;4.64;63.15;103386.38;12256519;19;20029;-91
2023/01/23 08:23:01;;;;;;;17.20;10.23;;;6.00;60.60;;;4.55;63.24;103375.88;12253888;19;20029;-91
2023/01/23 08:27:03;;;;;;;17.02;9.85;;;6.10;60.00;;;4.18;63.45;103320.22;12251113;19;20007;-90
2023/01/23 08:31:08;;;;;;;16.30;9.25;;;6.00;60.10;;;4.18;63.38;103333.16;12250132;19;20027;-91
2023/01/23 08:35:10;;;;;;;20.50;12.15;;;6.00;60.00;;;4.09;63.27;103333.03;12252129;19;20018;-91
2023/01/23 08:39:12;;;;;;;16.48;10.48;;;6.10;60.20;;;4.19;63.37;103358.19;12253512;19;20490;-91
2023/01/23 08:43:15;;;;;;;21.00;11.48;;;6.00;59.90;;;4.18;63.15;103361.59;12249122;19;20025;-91
2023/01/23 08:47:17;;;;;;;16.70;9.73;;;6.00;60.00;;;4.59;63.28;103437.19;12253090;19;20437;-91
2023/01/23 08:51:19;;;;;;;17.15;10.25;;;6.30;60.10;;;4.59;63.22;103438.91;12253812;19;20014;-89
2023/01/23 08:55:21;;;;;;;13.40;8.52;;;6.00;60.00;;;4.60;63.44;103440.66;12250111;19;20018;-90
2023/01/23 08:59:23;;;;;;;14.68;8.93;;;6.20;60.10;;;4.56;63.42;103434.53;12251798;19;20011;-90
2023/01/23 09:03:25;;;;;;;19.20;11.35;;;6.10;60.00;;;4.54;63.42;103435.41;12248396;19;20014;-90
2023/01/23 09:07:27;;;;;;;18.13;10.93;;;6.00;60.10;;;4.55;63.47;103445.75;12253245;19;20014;-90
2023/01/23 09:11:29;;;;;;;17.35;10.55;;;6.00;60.00;;;4.60;63.25;103471.72;12252132;19;20018;-90
2023/01/23 09:15:31;;;;;;;17.73;10.73;;;6.10;60.20;;;4.50;63.35;103450.00;12250828;19;20326;-90
2023/01/23 09:19:33;;;;;;;14.80;9.18;;;6.00;60.20;;;4.32;63.48;103424.75;12251612;19;20013;-91
2023/01/23 09:23:35;;;;;;;13.95;9.35;;;6.00;60.00;;;4.38;63.48;103432.59;12236149;19;20042;-92
2023/01/23 09:27:37;;;;;;;13.68;8.40;;;6.10;60.10;;;4.64;63.36;103484.72;12247269;19;20022;-92
2023/01/23 09:31:38;;;;;;;16.63;9.68;;;6.10;60.10;;;4.63;63.54;103476.94;12251893;19;20002;-90
2023/01/23 09:35:40;;;;;;;15.30;9.35;;;6.00;60.00;;;4.64;63.49;103486.41;12248680;19;20024;-92
2023/01/23 09:39:45;;;;;;;16.17;9.70;;;6.10;60.00;;;4.42;63.49;103451.59;12251678;19;20026;-91
2023/01/23 09:43:57;;;;;;;16.00;10.13;;;6.10;60.00;;;4.55;63.36;103474.22;12247727;19;20025;-91
2023/01/23 09:48:28;;;;;;;14.93;9.90;;;6.10;60.00;;;4.58;63.25;103473.41;12250192;19;20033;-91
2023/01/23 09:52:39;;;;;;;14.80;8.82;;;6.10;60.00;;;4.63;63.49;103482.09;12248982;19;20018;-91
2023/01/23 09:56:45;;;;;;;13.80;8.73;;;6.10;59.90;;;4.49;63.44;103452.56;12247295;19;20010;-91
2023/01/23 10:00:49;;;;;;;13.55;9.02;;;6.20;59.90;;;4.69;63.52;103487.34;12248513;19;20021;-91
2023/01/23 10:04:52;;;;;;;13.73;8.88;;;6.20;59.80;;;4.38;63.45;103442.94;12246958;19;20010;-90
2023/01/23 10:09:32;;;;;;;15.43;10.00;;;6.20;59.90;;;4.54;63.49;103472.50;12248810;19;20015;-91
2023/01/23 10:13:55;;;;;;;14.32;9.27;;;6.10;59.80;;;4.72;63.41;103502.06;12246485;19;20091;-91
2023/01/23 10:18:24;;;;;;;14.27;9.07;;;6.20;59.80;;;4.61;63.51;103481.19;12250527;19;20424;-91
2023/01/23 10:22:41;;;;;;;14.98;9.70;;;6.20;59.80;;;4.64;63.36;103492.47;12245339;19;20045;-90
2023/01/23 10:26:45;;;;;;;13.30;8.77;;;6.20;59.90;;;4.60;63.43;103487.25;12245160;19;20022;-90
2023/01/23 10:30:53;;;;;;;15.52;9.65;;;6.20;59.80;;;4.75;63.51;103503.00;12247212;19;20026;-91
2023/01/23 10:35:46;;;;;;;16.52;10.38;;;6.20;59.80;;;4.74;63.33;103506.41;12244441;19;20508;-90
2023/01/23 10:39:57;;;;;;;13.20;8.48;;;6.20;59.80;;;4.74;63.55;103501.22;12242425;19;20507;-90
2023/01/23 10:44:00;;;;;;;13.60;8.85;;;6.20;59.80;;;4.79;63.34;103511.66;12239155;19;20464;-89
2023/01/23 10:48:11;;;;;;;12.38;8.55;;;6.20;59.70;;;4.81;63.30;103515.16;12245248;19;20089;-90
2023/01/23 10:53:04;;;;;;;15.02;9.80;;;6.30;59.80;;;4.80;63.42;103501.31;12243911;19;20026;-90
2023/01/23 10:57:08;;;;;;;16.35;10.73;;;6.20;59.70;;;4.82;63.41;103504.78;12247423;19;20014;-90
2023/01/23 11:01:34;;;;;;;17.80;9.97;;;6.20;59.70;;;4.74;63.34;103498.63;12243829;19;20024;-90
2023/01/23 11:05:42;;;;;;;16.45;11.15;;;6.20;59.70;;;4.78;63.43;103499.53;12242861;19;20021;-91
2023/01/23 11:10:12;;;;;;;15.88;9.65;;;6.20;59.80;;;4.79;63.40;103504.75;12248279;19;20014;-89
2023/01/23 11:14:21;;;;;;;19.23;12.27;;;6.20;59.70;;;4.65;63.29;103477.81;12248791;19;20011;-89
2023/01/23 11:18:33;;;;;;;15.77;10.65;;;6.20;59.70;;;4.75;63.36;103483.97;12246712;19;20471;-89
2023/01/23 11:22:41;;;;;;;13.88;10.13;;;6.20;59.70;;;4.70;63.50;103471.00;12248175;19;20014;-89
2023/01/23 11:26:42;;;;;;;17.85;11.38;;;6.50;59.90;;;4.64;63.47;103456.25;12245284;19;20399;-91
2023/01/23 11:30:50;;;;;;;15.95;11.07;;;6.30;59.80;;;4.80;63.42;103470.25;12246569;19;20029;-92
2023/01/23 11:35:12;;;;;;;20.00;12.38;;;6.30;59.80;;;4.78;63.21;103477.13;12248779;19;20475;-91
2023/01/23 11:39:46;;;;;;;16.00;10.57;;;6.30;59.80;;;4.30;63.43;103395.41;12248397;19;20019;-89
2023/01/23 11:44:18;;;;;;;14.80;9.98;;;6.30;59.80;;;4.62;63.23;103449.31;12244624;19;20045;-88
2023/01/23 11:49:01;;;;;;;;;;;;;;;;;;;;;
2023/01/23 11:53:23;;;;;;;17.05;9.88;;;6.30;59.80;;;4.70;63.42;103439.94;12254724;19;20349;-88
2023/01/23 11:57:42;;;;;;;16.40;10.80;;;6.30;59.80;;;4.33;63.22;103385.09;12258686;19;20017;-89
2023/01/23 12:02:11;;;;;;;14.95;10.63;;;6.40;59.90;;;4.88;63.47;103478.13;12258508;19;20491;-88
2023/01/23 12:07:05;;;;;;;14.13;9.52;;;6.30;59.80;;;4.86;63.45;103465.16;12255815;19;20479;-88
2023/01/23 12:11:15;;;;;;;15.93;9.95;;;6.30;59.80;;;4.92;63.48;103469.56;12256359;19;20022;-88
2023/01/23 12:15:38;;;;;;;14.10;9.82;;;6.30;59.70;;;4.92;63.32;103468.69;12250524;19;20022;-88
2023/01/23 12:20:00;;;;;;;13.52;8.75;;;6.30;59.70;;;4.86;63.45;103454.81;12256552;19;20014;-88
2023/01/23 12:24:14;;;;;;;14.43;9.43;;;6.40;59.60;;;4.91;63.41;103448.81;12248057;19;20618;-87
2023/01/23 12:28:57;;;;;;;15.57;10.00;;;6.40;59.70;;;4.88;63.64;103453.09;12254226;19;20027;-88
2023/01/23 12:33:41;;;;;;;13.13;8.48;;;6.40;59.60;;;4.96;63.53;103454.91;12256067;19;20050;-88
2023/01/23 12:38:15;;;;;;;12.35;8.60;;;6.40;59.60;;;4.98;63.52;103442.88;12255148;19;20602;-88
2023/01/23 12:42:49;;;;;;;11.90;7.78;;;6.40;59.60;;;4.94;63.43;103433.31;12249687;19;20018;-88
2023/01/23 12:47:12;;;;;;;14.02;8.27;;;6.40;59.60;;;5.01;63.34;103432.53;12249357;19;20003;-88
2023/01/23 12:51:28;;;;;;;16.02;9.73;;;6.50;59.60;;;4.79;63.52;103396.03;12252961;19;20021;-87
2023/01/23 12:55:51;;;;;;;13.93;9.13;;;6.50;59.70;;;4.99;63.42;103431.66;12250380;19;20010;-87
2023/01/23 13:00:21;;;;;;;13.57;8.57;;;6.50;59.30;;;5.09;63.40;103441.25;12253075;19;20030;-87
2023/01/23 13:04:26;;;;;;;15.38;9.50;;;6.50;59.40;;;5.13;63.34;103442.16;12249151;19;20102;-87
2023/01/23 13:08:53;;;;;;;12.30;8.83;;;6.50;59.30;;;5.11;63.44;103439.56;12254810;19;20078;-87
2023/01/23 13:12:56;;;;;;;13.32;8.90;;;6.70;59.30;;;5.14;63.34;103443.91;12255396;19;20022;-87
2023/01/23 13:17:02;;;;;;;16.13;9.35;;;6.60;59.30;;;5.08;63.39;103442.13;12250521;19;20607;-87
2023/01/23 13:25:25;;;;;;;13.07;7.78;;;6.60;59.20;;;5.14;63.32;103443.91;12248972;19;20379;-87
2023/01/23 13:29:49;;;;;;;13.60;8.07;;;6.60;59.20;;;5.14;63.35;103449.97;12252212;19;20018;-87
2023/01/23 13:33:53;;;;;;;12.48;7.32;;;6.60;59.10;;;5.19;63.26;103452.59;12251197;19;20031;-87
2023/01/23 13:37:58;;;;;;;12.90;8.13;;;6.70;59.20;;;5.16;63.35;103443.09;12252332;19;20415;-87
2023/01/23 13:42:12;;;;;;;14.63;8.70;;;6.70;59.40;;;5.25;63.32;103458.72;12252672;19;20003;-87
2023/01/23 13:46:48;;;;;;;13.98;9.32;;;6.70;58.80;;;5.24;63.23;103466.50;12250501;19;20014;-87
2023/01/23 13:50:57;;;;;;;13.00;8.73;;;6.70;58.70;;;5.09;63.20;103439.53;12254232;19;20018;-87
2023/01/23 13:59:43;;;;;;;10.57;7.22;;;6.60;59.00;;;5.08;63.31;103432.63;12253883;19;20022;-88
2023/01/23 14:08:23;;;;;;;12.90;7.97;;;6.70;58.80;;;4.64;63.10;103359.59;12251667;19;20011;-89
2023/01/23 14:12:28;;;;;;;10.20;6.78;;;6.70;58.80;;;5.26;63.13;103452.66;12251557;19;20010;-88
2023/01/23 14:16:30;;;;;;;11.77;7.60;;;6.70;58.80;;;5.20;63.27;103447.44;12248992;19;20022;-87
2023/01/23 14:20:38;;;;;;;11.52;6.85;;;6.70;58.80;;;5.27;63.11;103459.59;12251614;19;20010;-87
2023/01/23 14:24:51;;;;;;;10.13;7.05;;;6.70;58.90;;;5.23;63.26;103460.41;12248923;19;20023;-87
2023/01/23 14:29:14;;;;;;;13.15;7.43;;;7.00;58.90;;;4.77;63.19;103371.84;12251216;19;20466;-87
2023/01/23 14:33:16;;;;;;;11.48;7.68;;;6.70;58.70;;;5.17;63.19;103444.81;12253388;19;20022;-87
2023/01/23 14:37:18;;;;;;;10.20;7.25;;;6.70;58.60;;;5.16;63.16;103447.38;12251744;19;20007;-88
2023/01/23 14:41:26;;;;;;;9.82;6.90;;;6.70;58.60;;;4.73;63.19;103385.63;12249652;19;20010;-87
2023/01/23 14:45:31;;;;;;;11.73;7.35;;;6.70;58.60;;;4.90;63.06;103410.84;12249518;19;20488;-87
2023/01/23 14:49:36;;;;;;;12.65;6.78;;;6.70;58.60;;;4.71;63.00;103389.91;12249677;19;20010;-88
2023/01/23 14:53:41;;;;;;;9.32;6.43;;;6.70;58.90;;;4.81;63.18;103412.47;12247626;19;20018;-88
2023/01/23 14:57:43;;;;;;;9.27;6.80;;;6.70;58.80;;;4.88;63.15;103419.44;12241450;19;20034;-87
2023/01/23 15:02:00;;;;;;;9.18;6.55;;;6.70;58.80;;;4.84;63.10;103415.09;12247850;19;20014;-87
2023/01/23 15:06:12;;;;;;;10.75;7.47;;;6.70;58.60;;;4.63;62.87;103389.78;12246052;19;20030;-87
2023/01/23 15:10:29;;;;;;;17.92;9.35;;;6.70;58.30;;;4.81;63.04;103425.41;12250122;19;20364;-87
2023/01/23 15:14:39;;;;;;;10.80;7.38;;;6.70;58.40;;;4.82;62.91;103426.28;12246257;19;20014;-88
2023/01/23 15:19:20;;;;;;;13.13;7.35;;;6.60;58.50;;;4.90;63.01;103440.19;12250150;19;20018;-87
2023/01/23 15:23:37;;;;;;;8.15;6.00;;;6.70;58.50;;;5.28;62.85;103504.50;12246503;19;20517;-87
2023/01/23 15:27:39;;;;;;;8.88;5.80;;;6.70;58.60;;;4.86;62.86;103439.28;12261317;19;20050;-87
2023/01/23 15:31:45;;;;;;;7.68;5.65;;;6.70;58.60;;;4.99;62.98;103462.72;12263409;19;20021;-88
2023/01/23 15:35:48;;;;;;;11.13;6.30;;;6.70;58.60;;;4.73;62.95;103432.22;12258631;19;20783;-87
2023/01/23 15:40:01;;;;;;;10.35;6.57;;;6.70;58.60;;;4.93;62.95;103458.34;12259728;19;20010;-87
2023/01/23 15:44:03;;;;;;;8.90;6.30;;;6.90;58.70;;;4.51;62.88;103389.66;12255076;19;20010;-87
2023/01/23 15:48:07;;;;;;;11.52;6.28;;;6.70;58.60;;;4.82;62.80;103441.81;12260731;19;20444;-88
2023/01/23 15:52:47;;;;;;;9.70;6.87;;;6.70;58.60;;;4.81;62.70;103438.34;12261125;19;20107;-87
2023/01/23 15:56:51;;;;;;;8.77;5.97;;;6.70;58.50;;;4.72;62.89;103432.16;12257622;19;20038;-87
2023/01/23 16:00:53;;;;;;;9.95;6.13;;;6.70;58.50;;;5.06;62.79;103486.13;12255134;19;20670;-87
2023/01/23 16:04:56;;;;;;;11.15;5.60;;;6.70;58.50;;;5.04;62.80;103485.22;12257355;19;20010;-87
2023/01/23 16:09:01;;;;;;;9.10;5.95;;;6.70;58.60;;;4.81;62.82;103453.03;12262319;19;20052;-87
2023/01/23 16:13:11;;;;;;;8.10;6.05;;;6.70;58.60;;;4.80;62.90;103449.53;12259574;19;20038;-87
2023/01/23 16:17:13;;;;;;;8.82;6.35;;;6.50;58.50;;;5.00;62.74;103490.38;12258003;19;20015;-87
2023/01/23 16:21:23;;;;;;;7.43;5.55;;;6.70;58.60;;;4.85;62.90;103465.13;12258729;19;20466;-86
2023/01/23 16:25:38;;;;;;;9.40;6.05;;;6.70;58.70;;;4.92;62.84;103481.63;12255316;19;20002;-87
2023/01/23 16:29:42;;;;;;;7.07;5.40;;;6.70;58.70;;;5.07;62.72;103499.94;12257031;19;20014;-86
2023/01/23 16:33:43;;;;;;;9.50;5.87;;;6.70;58.70;;;4.81;62.78;103465.97;12260175;19;20030;-87
2023/01/23 16:39:07;;;;;;;9.02;6.32;;;6.60;58.60;;;5.26;62.82;103547.66;12256839;19;20010;-89
2023/01/23 16:43:09;;;;;;;8.55;6.57;;;6.70;58.50;;;4.69;62.80;103455.44;12254062;19;20014;-87
2023/01/23 16:47:11;;;;;;;11.32;6.47;;;6.70;58.70;;;4.82;62.79;103478.03;12258637;19;20025;-87
2023/01/23 16:51:22;;;;;;;9.10;6.38;;;6.60;58.70;;;4.77;62.58;103480.56;12259570;19;20048;-87
2023/01/23 16:55:37;;;;;;;10.05;7.20;;;6.60;58.60;;;4.78;62.62;103479.72;12252319;19;20029;-87
2023/01/23 16:59:39;;;;;;;9.93;6.10;;;6.60;58.60;;;4.81;62.68;103478.91;12258196;19;20069;-86
2023/01/23 17:03:41;;;;;;;9.85;6.40;;;6.60;58.70;;;4.79;62.88;103481.47;12253799;19;20047;-87
2023/01/23 17:07:46;;;;;;;10.70;5.95;;;6.60;58.70;;;4.62;62.77;103462.25;12255732;19;20010;-87
2023/01/23 17:11:55;;;;;;;10.65;7.00;;;6.60;58.80;;;5.05;62.61;103533.59;12256086;19;20080;-87
2023/01/23 17:15:57;;;;;;;9.45;6.78;;;6.60;58.60;;;4.93;62.82;103512.72;12252050;19;20014;-87
2023/01/23 17:20:04;;;;;;;10.95;7.57;;;6.80;58.80;;;4.54;62.73;103463.88;12255691;19;20010;-86
2023/01/23 17:24:15;;;;;;;9.88;6.90;;;6.50;58.50;;;4.74;62.65;103501.22;12251220;19;20018;-87
2023/01/23 17:28:19;;;;;;;10.00;7.38;;;6.50;58.50;;;4.98;62.68;103546.44;12255837;19;20089;-87
2023/01/23 17:32:34;;;;;;;9.73;7.15;;;6.50;58.60;;;4.62;62.83;103493.31;12258486;19;20006;-87
2023/01/23 17:36:36;;;;;;;9.23;6.38;;;6.50;58.60;;;4.86;62.68;103518.63;12249099;19;20018;-87
2023/01/23 17:40:39;;;;;;;9.35;6.38;;;6.50;58.70;;;4.66;62.83;103490.75;12253082;19;20018;-86